Time;durP1;ratioP1;P1;durP2;ratioP2;P2;SDS_P1;SDS_P2;PMS_P1;PMS_P2;Temp;Humidity;BMP_temperature;BMP_pressure;BME280_temperature;BME280_humidity;BME280_pressure;Samples;Min_cycle;Max_cycle;Signal;HPM_P1;HPM_P2
2020/12/18 00:00:47;;;;;;;21.50;10.90;;;;;;;5.89;91.21;102236.53;4961504;28;20429;-79
2020/12/18 00:03:16;;;;;;;21.38;10.90;;;;;;;5.75;91.74;102220.81;4984598;28;20061;-79
2020/12/18 00:05:42;;;;;;;17.67;10.07;;;;;;;5.65;91.93;102217.81;4989570;28;20068;-77
2020/12/18 00:08:09;;;;;;;17.42;9.45;;;;;;;5.51;91.96;102228.94;4952497;28;20049;-80
2020/12/18 00:10:41;;;;;;;19.15;10.10;;;;;;;5.30;92.63;102217.84;4947647;28;20042;-79
2020/12/18 00:13:07;;;;;;;20.50;10.35;;;;;;;5.23;93.00;102224.25;4958239;28;20050;-79
2020/12/18 00:15:33;;;;;;;21.95;9.73;;;;;;;5.07;93.43;102225.00;4969360;28;20043;-78
2020/12/18 00:18:00;;;;;;;22.40;11.02;;;;;;;5.29;93.13;102229.16;4977709;28;20034;-79
2020/12/18 00:20:26;;;;;;;20.23;10.98;;;;;;;5.17;93.43;102238.41;4978061;28;20089;-78
2020/12/18 00:22:52;;;;;;;19.92;10.07;;;;;;;5.07;93.37;102235.41;4957911;28;20046;-77
2020/12/18 00:25:21;;;;;;;24.27;10.88;;;;;;;4.96;93.99;102235.09;4980122;28;20037;-78
2020/12/18 00:27:48;;;;;;;26.52;10.73;;;;;;;4.74;94.25;102227.47;4996915;28;20039;-78
2020/12/18 00:30:15;;;;;;;20.73;10.60;;;;;;;4.55;94.30;102221.44;4995582;28;20466;-78
2020/12/18 00:32:42;;;;;;;22.98;10.77;;;;;;;4.52;94.70;102205.97;5005560;28;20058;-77
2020/12/18 00:35:10;;;;;;;16.65;10.45;;;;;;;4.67;94.09;102226.91;4992773;28;21197;-77
2020/12/18 00:37:37;;;;;;;17.02;10.80;;;;;;;4.63;93.99;102215.00;4977788;28;20026;-79
2020/12/18 00:40:08;;;;;;;20.40;10.20;;;;;;;4.65;94.05;102235.69;4962091;28;20100;-78
2020/12/18 00:42:36;;;;;;;19.55;10.63;;;;;;;4.56;94.22;102215.31;4995294;28;20084;-78
2020/12/18 00:45:03;;;;;;;22.88;11.52;;;;;;;4.82;93.81;102243.56;4986112;28;20030;-79
2020/12/18 00:47:28;;;;;;;25.25;11.00;;;;;;;4.77;93.82;102244.69;4964899;28;20025;-78
2020/12/18 00:49:54;;;;;;;19.25;10.98;;;;;;;4.61;93.92;102234.16;4988704;28;20192;-76
2020/12/18 00:52:24;;;;;;;21.63;10.98;;;;;;;4.58;94.35;102244.69;4970385;28;20030;-79
2020/12/18 00:54:50;;;;;;;21.55;11.32;;;;;;;4.55;94.21;102234.44;5029429;28;20492;-79
2020/12/18 00:57:24;;;;;;;26.00;11.93;;;;;;;4.51;94.08;102228.53;4982987;28;20049;-78
2020/12/18 00:59:51;;;;;;;22.77;11.07;;;;;;;4.41;94.38;102222.94;4961110;28;20038;-80
2020/12/18 01:02:26;;;;;;;23.10;11.57;;;;;;;4.51;94.69;102249.31;5006883;28;20630;-78
2020/12/18 01:04:52;;;;;;;19.20;12.02;;;;;;;4.57;94.24;102251.63;4996025;28;20096;-78
2020/12/18 01:07:18;;;;;;;25.15;11.48;;;;;;;4.61;94.18;102242.78;4964381;28;20031;-76
2020/12/18 01:09:44;;;;;;;21.77;12.10;;;;;;;4.58;93.71;102232.53;4965573;28;20069;-77
2020/12/18 01:12:13;;;;;;;23.35;12.02;;;;;;;4.73;93.53;102243.13;4961175;28;20046;-78
2020/12/18 01:14:54;;;;;;;25.35;12.50;;;;;;;4.85;93.59;102252.97;4948765;28;20386;-79
2020/12/18 01:17:20;;;;;;;22.63;12.80;;;;;;;4.86;94.21;102260.69;4961180;28;20067;-78
2020/12/18 01:19:47;;;;;;;27.65;13.23;;;;;;;4.96;93.75;102239.47;4969180;28;20093;-78
2020/12/18 01:22:13;;;;;;;23.42;12.38;;;;;;;5.13;93.66;102254.25;4996818;28;20046;-78
2020/12/18 01:24:45;;;;;;;31.30;14.40;;;;;;;5.04;93.09;102229.50;4985853;28;20569;-79
2020/12/18 01:27:12;;;;;;;30.52;12.73;;;;;;;5.15;93.23;102253.25;4980263;28;20038;-78
2020/12/18 01:29:38;;;;;;;23.65;12.05;;;;;;;5.16;93.29;102260.16;4976784;28;20045;-79
2020/12/18 01:32:06;;;;;;;21.33;12.10;;;;;;;4.96;93.36;102231.66;4971174;28;20132;-80
2020/12/18 01:34:35;;;;;;;24.85;12.38;;;;;;;4.99;93.77;102240.16;4980585;28;20034;-79
2020/12/18 01:37:01;;;;;;;22.23;12.30;;;;;;;5.01;93.51;102240.06;4978247;28;20058;-76
2020/12/18 01:39:41;;;;;;;25.45;13.00;;;;;;;5.19;93.22;102256.53;4993145;28;20540;-78
2020/12/18 01:42:11;;;;;;;22.27;13.18;;;;;;;5.26;92.74;102263.97;4975615;28;20635;-79
2020/12/18 01:44:36;;;;;;;24.92;12.95;;;;;;;5.17;93.25;102254.00;4974383;28;20101;-78
2020/12/18 01:47:23;;;;;;;23.33;12.90;;;;;;;5.35;92.45;102269.63;4979294;28;20796;-79
2020/12/18 01:49:50;;;;;;;22.35;12.23;;;;;;;5.30;92.95;102271.66;4987734;28;20034;-78
2020/12/18 01:52:17;;;;;;;21.60;12.88;;;;;;;5.36;93.12;102276.53;4983475;28;20512;-78
2020/12/18 01:54:56;;;;;;;20.48;11.55;;;;;;;5.22;93.31;102266.81;5013556;28;20030;-78
2020/12/18 01:57:24;;;;;;;28.67;13.27;;;;;;;5.31;93.06;102274.16;5013555;28;20038;-79
2020/12/18 02:00:00;;;;;;;24.33;13.38;;;;;;;5.25;93.65;102277.91;4980254;28;20034;-78
2020/12/18 02:02:40;;;;;;;;;;;;;;;5.34;93.35;102278.38;4979949;28;20030;-79
2020/12/18 02:05:21;;;;;;;20.85;12.05;;;;;;;5.28;93.45;102289.09;4963519;28;19914;-76
2020/12/18 02:08:13;;;;;;;21.38;13.10;;;;;;;5.36;93.41;102289.56;4957797;28;20038;-78
2020/12/18 02:10:57;;;;;;;29.48;12.63;;;;;;;5.38;92.72;102285.13;4977317;28;20481;-77
2020/12/18 02:13:25;;;;;;;22.00;13.00;;;;;;;5.34;93.24;102294.81;4989523;28;20030;-78
2020/12/18 02:15:52;;;;;;;25.35;13.32;;;;;;;5.31;93.06;102291.53;4964562;28;20045;-79
2020/12/18 02:18:26;;;;;;;24.85;11.90;;;;;;;5.38;93.09;102278.13;4977254;28;20045;-78
2020/12/18 02:20:53;;;;;;;24.10;12.88;;;;;;;5.50;92.59;102281.91;4993327;28;20030;-78
2020/12/18 02:23:19;;;;;;;19.63;12.65;;;;;;;5.50;92.47;102281.06;4961294;28;20042;-77
2020/12/18 02:26:03;;;;;;;21.83;12.95;;;;;;;5.44;92.87;102280.47;4951878;28;20137;-77
2020/12/18 02:28:29;;;;;;;24.35;12.85;;;;;;;5.36;92.94;102279.97;4994569;28;20030;-76
2020/12/18 02:30:54;;;;;;;24.23;14.45;;;;;;;5.37;93.18;102281.69;4977057;28;20034;-77
2020/12/18 02:33:31;;;;;;;26.48;13.60;;;;;;;5.26;93.59;102281.34;4977710;28;20056;-78
2020/12/18 02:36:04;;;;;;;22.80;13.02;;;;;;;5.34;93.11;102292.22;4977522;28;20066;-77
2020/12/18 02:38:30;;;;;;;20.77;12.23;;;;;;;5.21;93.10;102285.94;4977389;28;20041;-77
2020/12/18 02:40:57;;;;;;;23.65;12.38;;;;;;;5.31;93.15;102286.31;4964132;28;20041;-76
2020/12/18 02:43:35;;;;;;;22.98;14.20;;;;;;;5.34;92.86;102288.78;4990069;28;20810;-77
2020/12/18 02:46:03;;;;;;;27.17;13.90;;;;;;;5.22;93.45;102283.25;4975288;28;20031;-78
2020/12/18 02:48:34;;;;;;;20.42;13.10;;;;;;;5.34;93.16;102287.03;4980093;28;20084;-76
2020/12/18 02:51:13;;;;;;;23.77;13.48;;;;;;;5.39;92.94;102279.84;4989474;28;20038;-78
2020/12/18 02:53:47;;;;;;;24.10;13.68;;;;;;;5.32;92.79;102280.22;5007068;28;20030;-79
2020/12/18 02:56:36;;;;;;;22.70;13.30;;;;;;;5.41;92.78;102271.97;5013227;28;20034;-77
2020/12/18 02:59:24;;;;;;;23.40;13.65;;;;;;;5.44;92.69;102277.88;4999334;28;20133;-76
2020/12/18 03:01:53;;;;;;;21.85;12.93;;;;;;;5.47;92.24;102277.69;4971287;28;20046;-77
2020/12/18 03:04:19;;;;;;;19.33;12.45;;;;;;;5.58;91.92;102289.34;4976072;28;20026;-77
2020/12/18 03:06:55;;;;;;;26.40;13.63;;;;;;;5.58;92.07;102291.94;4987119;28;20528;-77
2020/12/18 03:09:22;;;;;;;23.70;14.25;;;;;;;5.53;92.19;102289.56;4977505;28;20142;-76
2020/12/18 03:11:48;;;;;;;20.48;13.68;;;;;;;5.62;92.23;102283.91;5005235;28;20069;-78
2020/12/18 03:14:13;;;;;;;29.08;14.43;;;;;;;5.52;92.02;102293.09;4976993;28;20058;-78
2020/12/18 03:16:48;;;;;;;24.27;13.23;;;;;;;5.51;92.11;102286.19;5009393;28;20046;-78
2020/12/18 03:19:30;;;;;;;24.20;13.68;;;;;;;5.63;91.43;102277.78;4962842;28;20038;-77
2020/12/18 03:22:06;;;;;;;22.38;13.00;;;;;;;5.69;91.38;102279.25;4991946;28;20117;-76
2020/12/18 03:24:51;;;;;;;20.30;13.45;;;;;;;5.66;91.04;102271.56;4994367;28;20511;-77
2020/12/18 03:27:36;;;;;;;20.73;12.27;;;;;;;5.67;91.60;102286.28;5007097;28;20035;-77
2020/12/18 03:30:05;;;;;;;20.48;13.40;;;;;;;5.57;91.91;102282.44;4969478;28;20058;-77
2020/12/18 03:32:31;;;;;;;29.08;14.65;;;;;;;5.53;92.27;102276.53;4982972;28;20084;-75
2020/12/18 03:35:05;;;;;;;22.42;13.90;;;;;;;5.52;92.34;102279.22;4994432;28;20061;-78
2020/12/18 03:37:34;;;;;;;25.70;14.10;;;;;;;5.68;91.45;102280.16;4976784;28;20588;-76
2020/12/18 03:40:03;;;;;;;22.67;13.35;;;;;;;5.66;91.62;102285.44;4970783;28;20066;-76
2020/12/18 03:42:34;;;;;;;23.58;13.10;;;;;;;5.71;91.20;102285.22;4955125;28;20532;-77
2020/12/18 03:45:00;;;;;;;21.02;12.73;;;;;;;5.68;91.42;102287.13;4960844;28;20076;-77
2020/12/18 03:47:45;;;;;;;24.30;13.10;;;;;;;5.61;92.07;102287.44;4983673;28;20035;-78
2020/12/18 03:50:19;;;;;;;21.30;13.20;;;;;;;5.58;91.54;102284.16;4995571;28;20057;-77
2020/12/18 03:52:49;;;;;;;23.00;13.13;;;;;;;5.58;91.97;102292.78;4976940;28;20104;-77
2020/12/18 03:55:14;;;;;;;22.88;14.05;;;;;;;5.53;92.00;102293.94;4960568;28;20393;-78
2020/12/18 03:58:15;;;;;;;22.17;12.60;;;;;;;5.51;92.16;102296.59;4977155;28;20042;-76
2020/12/18 04:00:49;;;;;;;26.48;13.50;;;;;;;5.39;93.05;102284.22;4978815;28;20381;-78
2020/12/18 04:03:14;;;;;;;22.98;12.95;;;;;;;5.28;93.12;102271.72;4977471;28;20126;-77
2020/12/18 04:05:40;;;;;;;19.73;13.10;;;;;;;5.35;92.95;102290.44;4945667;28;20548;-77
2020/12/18 04:08:08;;;;;;;26.73;15.13;;;;;;;5.30;92.71;102290.69;4994054;28;20072;-78
2020/12/18 04:10:57;;;;;;;21.80;13.05;;;;;;;5.29;93.55;102294.19;5011975;28;20042;-77
2020/12/18 04:13:45;;;;;;;25.27;14.48;;;;;;;5.23;93.10;102294.50;4992816;28;20050;-76
2020/12/18 04:16:11;;;;;;;21.88;13.82;;;;;;;5.25;93.02;102292.66;4980366;28;20045;-77
2020/12/18 04:18:37;;;;;;;22.67;12.93;;;;;;;5.21;93.44;102297.16;4997179;28;20042;-77
2020/12/18 04:21:07;;;;;;;24.08;13.27;;;;;;;5.22;93.21;102295.44;4979414;28;20065;-78
2020/12/18 04:23:39;;;;;;;23.00;15.07;;;;;;;5.23;93.16;102294.50;4980637;28;20042;-77
2020/12/18 04:26:26;;;;;;;25.95;13.57;;;;;;;5.23;92.84;102284.94;4994212;28;20046;-78
2020/12/18 04:28:52;;;;;;;25.20;16.13;;;;;;;5.20;93.15;102292.91;4964071;28;20046;-79
2020/12/18 04:31:18;;;;;;;23.50;15.52;;;;;;;5.24;92.97;102296.19;4976851;28;20088;-77
2020/12/18 04:33:45;;;;;;;30.52;15.57;;;;;;;5.11;93.04;102293.34;4975695;28;20458;-78
2020/12/18 04:36:13;;;;;;;26.80;15.50;;;;;;;5.07;93.36;102292.63;4995230;28;20061;-77
2020/12/18 04:38:40;;;;;;;27.23;15.57;;;;;;;5.01;93.68;102289.47;4974772;28;20034;-78
2020/12/18 04:41:19;;;;;;;21.85;14.82;;;;;;;5.11;93.25;102290.72;4977414;28;20046;-77
2020/12/18 04:43:55;;;;;;;25.38;15.27;;;;;;;5.13;93.02;102298.47;4981364;28;20086;-78
2020/12/18 04:46:29;;;;;;;23.67;14.98;;;;;;;5.05;93.55;102296.25;4950543;28;20031;-79
2020/12/18 04:48:55;;;;;;;30.70;15.77;;;;;;;4.98;93.23;102297.44;4982787;28;20116;-77
2020/12/18 04:51:26;;;;;;;24.98;14.00;;;;;;;4.91;93.36;102296.03;4982210;28;20042;-77
2020/12/18 04:54:03;;;;;;;28.65;15.50;;;;;;;4.79;93.48;102297.44;4999176;28;20551;-78
2020/12/18 04:56:39;;;;;;;25.38;15.05;;;;;;;4.72;93.92;102302.06;4991366;28;20038;-77
2020/12/18 04:59:15;;;;;;;30.27;15.15;;;;;;;4.77;94.08;102300.13;4976577;28;20039;-76
2020/12/18 05:01:57;;;;;;;28.33;14.85;;;;;;;4.67;94.28;102286.69;4978993;28;20045;-77
2020/12/18 05:04:29;;;;;;;23.27;15.18;;;;;;;4.72;94.09;102288.25;4974226;28;20038;-76
2020/12/18 05:07:15;;;;;;;25.30;14.30;;;;;;;4.67;93.88;102293.63;4994911;28;20467;-77
2020/12/18 05:09:50;;;;;;;29.25;15.32;;;;;;;4.62;94.07;102304.25;4959741;28;20031;-76
2020/12/18 05:12:20;;;;;;;26.67;15.75;;;;;;;4.76;93.73;102305.38;4981413;28;20053;-76
2020/12/18 05:14:48;;;;;;;24.92;14.40;;;;;;;4.61;93.61;102309.53;4968699;28;20467;-76
2020/12/18 05:17:27;;;;;;;25.88;15.05;;;;;;;4.63;93.33;102305.97;4966308;28;20045;-77
2020/12/18 05:19:53;;;;;;;24.17;14.70;;;;;;;4.52;93.40;102313.38;4979284;28;20034;-78
2020/12/18 05:22:37;;;;;;;29.98;15.77;;;;;;;4.38;94.42;102308.78;5011674;28;20069;-77
2020/12/18 05:25:38;;;;;;;26.27;15.98;;;;;;;4.43;94.14;102306.00;4945364;28;20041;-76
2020/12/18 05:28:04;;;;;;;30.48;15.93;;;;;;;4.49;94.24;102303.97;4986890;28;20089;-77
2020/12/18 05:30:33;;;;;;;25.52;15.80;;;;;;;4.53;94.00;102311.63;4978511;28;20035;-77
2020/12/18 05:33:37;;;;;;;28.13;15.70;;;;;;;4.63;93.58;102313.75;4995143;28;20404;-77
2020/12/18 05:36:25;;;;;;;26.02;16.00;;;;;;;4.75;93.51;102308.91;4978937;28;20034;-78
2020/12/18 05:38:52;;;;;;;31.77;16.08;;;;;;;4.82;93.07;102308.56;4973912;28;20513;-77
2020/12/18 05:41:28;;;;;;;26.45;15.50;;;;;;;4.79;92.82;102294.84;4963101;28;20119;-78
2020/12/18 05:43:54;;;;;;;26.90;15.35;;;;;;;4.71;93.39;102295.22;4984835;28;20513;-77
2020/12/18 05:46:42;;;;;;;28.23;15.23;;;;;;;4.64;93.44;102296.41;5008025;28;20122;-78
2020/12/18 05:49:13;;;;;;;24.33;14.43;;;;;;;4.55;93.43;102295.03;4990544;28;20049;-78
2020/12/18 05:51:49;;;;;;;30.45;15.23;;;;;;;4.58;93.07;102294.91;4995905;28;20057;-78
2020/12/18 05:54:31;;;;;;;26.98;15.73;;;;;;;4.54;93.23;102295.09;4991103;28;20038;-77
2020/12/18 05:57:10;;;;;;;25.05;15.10;;;;;;;4.38;93.92;102295.81;4977772;28;20686;-79
2020/12/18 05:59:40;;;;;;;26.63;15.25;;;;;;;4.45;94.04;102296.38;4958977;28;20421;-75
2020/12/18 06:02:12;;;;;;;25.48;14.95;;;;;;;4.38;93.73;102302.75;4989182;28;20134;-79
2020/12/18 06:05:00;;;;;;;33.63;15.75;;;;;;;4.33;93.85;102292.56;4983598;28;20114;-79
2020/12/18 06:07:44;;;;;;;37.08;16.80;;;;;;;4.37;93.48;102295.88;4972874;28;20548;-77
2020/12/18 06:10:25;;;;;;;31.65;14.95;;;;;;;4.34;93.76;102296.00;4977603;28;20110;-77
2020/12/18 06:13:20;;;;;;;24.00;14.77;;;;;;;4.31;93.73;102303.94;4986963;28;20034;-77
2020/12/18 06:15:57;;;;;;;25.42;15.88;;;;;;;4.31;93.79;102303.94;4994445;28;20759;-78
2020/12/18 06:18:42;;;;;;;25.92;14.98;;;;;;;4.26;94.24;102312.78;4978009;28;20038;-77
2020/12/18 06:21:10;;;;;;;34.80;17.08;;;;;;;4.24;94.05;102305.97;4976617;28;20026;-77
2020/12/18 06:23:36;;;;;;;27.48;15.43;;;;;;;4.17;94.19;102315.78;4950937;28;20060;-76
2020/12/18 06:26:20;;;;;;;28.00;14.85;;;;;;;4.17;94.06;102305.38;4997929;28;20036;-77
2020/12/18 06:29:08;;;;;;;28.98;16.38;;;;;;;4.13;93.98;102314.22;4973363;28;20397;-77
2020/12/18 06:31:54;;;;;;;28.98;15.50;;;;;;;4.13;93.88;102306.44;4993485;28;20049;-77
2020/12/18 06:34:39;;;;;;;31.75;15.10;;;;;;;4.09;94.20;102305.72;4975927;28;20046;-78
2020/12/18 06:37:30;;;;;;;37.25;15.70;;;;;;;4.09;94.29;102315.28;4982941;28;20041;-77
2020/12/18 06:40:25;;;;;;;25.85;14.77;;;;;;;4.06;94.58;102308.44;4967838;28;20038;-77
2020/12/18 06:43:34;;;;;;;28.58;15.52;;;;;;;4.08;94.70;102316.16;4975064;28;20037;-77
2020/12/18 06:46:12;;;;;;;33.25;15.82;;;;;;;3.99;94.93;102314.78;4977571;28;20492;-76
2020/12/18 06:48:56;;;;;;;35.88;16.30;;;;;;;4.13;94.38;102315.97;4990306;28;20030;-78
2020/12/18 06:51:45;;;;;;;31.88;15.52;;;;;;;3.97;94.71;102306.22;4988814;28;20642;-78
2020/12/18 06:54:21;;;;;;;30.45;15.30;;;;;;;3.85;94.93;102304.16;4962994;28;20469;-78
2020/12/18 06:56:54;;;;;;;33.10;17.58;;;;;;;3.77;95.93;102308.81;4979096;28;20034;-77
2020/12/18 06:59:23;;;;;;;28.60;16.63;;;;;;;3.79;95.53;102307.03;4993174;28;20499;-77
2020/12/18 07:01:49;;;;;;;29.58;14.98;;;;;;;3.56;94.80;102292.38;4993286;28;20117;-77
2020/12/18 07:04:19;;;;;;;24.88;12.45;;;;;;;3.29;94.98;102297.78;4993162;28;20038;-78
2020/12/18 07:06:45;;;;;;;29.58;14.43;;;;;;;3.28;95.67;102303.91;4993403;28;20022;-78
2020/12/18 07:09:11;;;;;;;34.03;15.07;;;;;;;3.39;96.57;102300.84;4976844;28;20080;-78
2020/12/18 07:11:37;;;;;;;32.25;15.40;;;;;;;3.30;96.45;102300.34;4985512;28;20061;-78
2020/12/18 07:14:03;;;;;;;30.25;17.35;;;;;;;3.48;96.28;102316.06;4976200;28;20038;-77
2020/12/18 07:16:29;;;;;;;28.50;15.30;;;;;;;3.28;95.41;102304.75;4961889;28;20062;-78
2020/12/18 07:18:59;;;;;;;32.10;15.35;;;;;;;3.11;95.99;102305.41;5009898;28;20121;-78
2020/12/18 07:21:25;;;;;;;32.20;16.77;;;;;;;2.88;96.75;102305.44;4977553;28;20033;-77
2020/12/18 07:23:52;;;;;;;34.05;15.90;;;;;;;2.74;97.12;102311.16;4973188;28;20042;-78
2020/12/18 07:26:19;;;;;;;32.08;17.05;;;;;;;2.69;96.80;102313.91;5013728;28;20037;-77
2020/12/18 07:28:45;;;;;;;27.33;14.98;;;;;;;2.76;98.09;102317.09;4996653;28;20165;-76
2020/12/18 07:31:15;;;;;;;31.45;15.18;;;;;;;2.85;98.27;102313.34;4960869;28;20049;-76
2020/12/18 07:33:41;;;;;;;30.80;15.85;;;;;;;2.95;97.85;102313.84;5001229;28;20500;-76
2020/12/18 07:36:07;;;;;;;30.80;14.73;;;;;;;3.02;97.87;102312.69;4979726;28;20073;-77
2020/12/18 07:38:33;;;;;;;28.13;14.73;;;;;;;3.18;97.59;102318.97;4997862;28;20034;-79
2020/12/18 07:41:08;;;;;;;30.33;14.73;;;;;;;3.21;97.58;102302.44;4996884;28;20045;-77
2020/12/18 07:43:35;;;;;;;28.85;14.27;;;;;;;3.23;97.44;102311.84;4996772;28;20030;-77
2020/12/18 07:46:06;;;;;;;27.00;13.32;;;;;;;3.19;97.53;102306.84;4978911;28;20396;-77
2020/12/18 07:48:36;;;;;;;26.58;13.35;;;;;;;3.12;97.78;102308.84;4984540;28;20070;-77
2020/12/18 07:51:11;;;;;;;22.45;13.23;;;;;;;3.04;97.82;102305.69;5007993;28;20045;-77
2020/12/18 07:53:42;;;;;;;22.55;13.18;;;;;;;2.97;97.75;102304.25;4993134;28;20504;-77
2020/12/18 07:56:09;;;;;;;30.30;13.57;;;;;;;2.97;97.73;102309.44;4972843;28;20038;-78
2020/12/18 07:58:48;;;;;;;24.55;12.43;;;;;;;2.92;97.87;102304.44;4990182;28;20034;-77
2020/12/18 08:01:22;;;;;;;23.50;11.98;;;;;;;2.95;97.82;102303.47;4990760;28;20038;-79
2020/12/18 08:03:56;;;;;;;26.45;13.25;;;;;;;3.03;98.11;102301.41;4995530;28;20129;-77
2020/12/18 08:06:24;;;;;;;31.70;13.30;;;;;;;3.14;98.35;102306.19;4970153;28;20042;-77
2020/12/18 08:08:52;;;;;;;28.67;13.85;;;;;;;3.20;98.15;102290.38;5017291;28;20054;-78
2020/12/18 08:11:18;;;;;;;28.27;13.32;;;;;;;3.32;98.01;102295.09;4998636;28;20120;-78
2020/12/18 08:13:44;;;;;;;29.50;13.27;;;;;;;3.48;97.70;102293.56;4978306;28;20052;-78
2020/12/18 08:16:12;;;;;;;27.77;12.63;;;;;;;3.54;97.16;102289.03;4995601;28;20034;-78
2020/12/18 08:18:42;;;;;;;29.23;13.55;;;;;;;3.70;96.93;102292.69;4995898;28;20471;-77
2020/12/18 08:21:08;;;;;;;30.48;12.50;;;;;;;3.72;96.64;102287.44;4989479;28;20105;-78
2020/12/18 08:23:36;;;;;;;21.52;10.88;;;;;;;3.69;97.16;102293.56;5000481;28;20085;-78
2020/12/18 08:26:04;;;;;;;24.17;12.15;;;;;;;3.77;96.82;102301.03;4984000;28;20041;-79
2020/12/18 08:28:31;;;;;;;20.90;10.60;;;;;;;3.77;96.84;102295.84;4993146;28;20085;-78
2020/12/18 08:31:05;;;;;;;22.77;10.93;;;;;;;3.82;96.54;102296.50;4979832;28;20137;-77
2020/12/18 08:33:34;;;;;;;;;;;;;;;3.83;96.77;102299.03;4966773;28;20042;-78
2020/12/18 08:36:01;;;;;;;24.20;10.00;;;;;;;3.92;96.15;102302.13;4998806;28;19917;-77
2020/12/18 08:38:26;;;;;;;20.25;10.25;;;;;;;3.86;96.28;102304.13;5016345;28;20104;-78
2020/12/18 08:40:56;;;;;;;15.50;10.00;;;;;;;3.96;96.66;102306.31;5007544;28;20030;-78
2020/12/18 08:43:21;;;;;;;21.15;9.98;;;;;;;4.02;96.29;102321.63;4980500;28;20035;-76
2020/12/18 08:45:47;;;;;;;18.40;9.55;;;;;;;4.00;96.31;102311.31;5008847;28;20393;-77
2020/12/18 08:48:18;;;;;;;26.60;9.93;;;;;;;4.12;95.74;102309.09;5012183;28;20038;-78
2020/12/18 08:50:43;;;;;;;17.98;9.00;;;;;;;4.08;95.80;102322.19;4986349;28;20066;-77
2020/12/18 08:53:14;;;;;;;18.55;9.05;;;;;;;4.16;95.45;102323.63;4995612;28;20034;-78
2020/12/18 08:55:40;;;;;;;19.73;9.73;;;;;;;4.12;95.51;102312.53;4980010;28;20065;-78
2020/12/18 08:58:10;;;;;;;17.10;8.77;;;;;;;4.15;95.33;102311.56;4998320;28;20065;-79
2020/12/18 09:00:39;;;;;;;22.92;9.48;;;;;;;4.15;95.23;102304.63;4993732;28;20031;-78
2020/12/18 09:03:06;;;;;;;23.67;9.75;;;;;;;4.20;95.03;102307.00;4979429;28;20065;-80
2020/12/18 09:05:36;;;;;;;16.30;8.98;;;;;;;4.29;94.84;102315.25;4997029;28;20038;-77
2020/12/18 09:08:28;;;;;;;20.45;9.80;;;;;;;4.40;94.56;102321.72;5010366;28;20026;-78
2020/12/18 09:10:59;;;;;;;15.07;7.80;;;;;;;4.46;93.86;102311.91;5012547;28;20045;-77
2020/12/18 09:13:29;;;;;;;19.90;8.85;;;;;;;4.44;94.34;102318.91;5011671;28;20096;-78
2020/12/18 09:15:59;;;;;;;14.98;8.00;;;;;;;4.49;94.36;102324.75;4962737;28;20046;-78
2020/12/18 09:18:26;;;;;;;18.85;7.28;;;;;;;4.54;93.75;102326.28;4991264;28;20049;-77
2020/12/18 09:20:54;;;;;;;17.52;8.38;;;;;;;4.66;93.36;102333.56;5005324;28;20035;-78
2020/12/18 09:23:32;;;;;;;15.25;8.30;;;;;;;4.72;93.73;102330.66;4974535;28;20034;-78
2020/12/18 09:26:00;;;;;;;11.60;7.32;;;;;;;4.88;92.32;102323.88;4988403;28;20066;-78
2020/12/18 09:28:26;;;;;;;15.48;7.45;;;;;;;4.94;91.94;102316.69;4988519;28;20525;-77
2020/12/18 09:30:56;;;;;;;12.93;7.20;;;;;;;4.98;91.84;102318.25;4979085;28;20030;-77
2020/12/18 09:33:27;;;;;;;14.90;6.60;;;;;;;5.05;92.23;102322.25;4962910;28;20428;-79
2020/12/18 09:35:59;;;;;;;14.68;7.30;;;;;;;5.08;91.33;102314.28;4995481;28;20050;-79
2020/12/18 09:38:30;;;;;;;15.55;6.85;;;;;;;5.20;91.21;102312.88;5014914;28;20034;-77
2020/12/18 09:40:57;;;;;;;16.98;6.38;;;;;;;5.29;90.73;102311.56;5006317;28;20054;-78
2020/12/18 09:43:23;;;;;;;12.30;6.05;;;;;;;5.33;90.39;102308.78;4999209;28;20042;-78
2020/12/18 09:45:49;;;;;;;11.02;6.38;;;;;;;5.49;90.17;102311.47;4978532;28;20062;-79
2020/12/18 09:48:15;;;;;;;10.05;5.80;;;;;;;5.54;89.65;102304.28;4995715;28;20034;-78
2020/12/18 09:50:41;;;;;;;14.82;6.10;;;;;;;5.59;89.02;102296.22;4989028;28;20476;-78
2020/12/18 09:53:06;;;;;;;10.70;5.88;;;;;;;5.68;89.06;102300.97;4975289;28;20034;-78
2020/12/18 09:55:32;;;;;;;10.93;5.38;;;;;;;5.74;88.58;102303.25;4983392;28;20082;-77
2020/12/18 09:57:59;;;;;;;7.88;5.00;;;;;;;5.77;88.15;102310.94;5011046;28;20096;-77
2020/12/18 10:00:25;;;;;;;10.27;5.18;;;;;;;5.74;88.28;102302.44;4975106;28;20027;-79
2020/12/18 10:02:50;;;;;;;11.65;5.47;;;;;;;5.81;87.96;102315.06;4999634;28;20155;-78
2020/12/18 10:05:16;;;;;;;10.32;5.38;;;;;;;5.72;88.82;102306.88;4999276;28;20113;-78
2020/12/18 10:07:41;;;;;;;9.85;5.22;;;;;;;5.68;88.79;102298.38;4972867;28;20094;-77
2020/12/18 10:10:07;;;;;;;13.80;5.28;;;;;;;5.65;88.58;102299.38;4965758;28;20066;-78
2020/12/18 10:12:32;;;;;;;11.15;5.28;;;;;;;5.72;88.85;102301.66;4989785;28;20034;-78
2020/12/18 10:14:58;;;;;;;9.82;5.05;;;;;;;5.72;88.83;102299.06;4962619;28;20042;-76
2020/12/18 10:17:23;;;;;;;14.05;5.35;;;;;;;5.70;89.00;102301.75;5011236;28;20034;-79
2020/12/18 10:19:51;;;;;;;13.40;4.78;;;;;;;5.77;88.91;102294.47;4978352;28;20109;-78
2020/12/18 10:22:17;;;;;;;9.18;4.32;;;;;;;5.83;88.16;102288.94;4995931;28;20045;-78
2020/12/18 10:24:44;;;;;;;9.82;4.35;;;;;;;5.87;88.47;102297.44;4962158;28;20309;-79
2020/12/18 10:27:10;;;;;;;9.93;4.68;;;;;;;5.86;88.11;102270.56;4978169;28;20480;-78
2020/12/18 10:29:36;;;;;;;9.75;4.50;;;;;;;5.94;88.51;102293.63;4993824;28;20041;-78
2020/12/18 10:32:01;;;;;;;10.27;3.97;;;;;;;6.00;87.82;102281.13;4997236;28;20034;-78
2020/12/18 10:34:27;;;;;;;9.63;4.40;;;;;;;6.11;86.96;102296.22;4976411;28;20027;-78
2020/12/18 10:36:54;;;;;;;13.77;4.72;;;;;;;6.13;87.61;102285.72;4990861;28;20169;-78
2020/12/18 10:39:23;;;;;;;7.35;4.00;;;;;;;6.29;87.12;102288.38;4986582;28;20038;-78
2020/12/18 10:41:48;;;;;;;12.68;4.38;;;;;;;6.32;86.58;102294.25;4978176;28;20153;-76
2020/12/18 10:44:14;;;;;;;11.48;4.55;;;;;;;6.40;86.88;102292.09;4985446;28;20121;-78
2020/12/18 10:46:40;;;;;;;11.68;4.20;;;;;;;6.56;85.75;102299.94;5009961;28;20451;-78
2020/12/18 10:49:07;;;;;;;8.75;4.00;;;;;;;6.65;85.71;102289.94;5009974;28;20034;-78
2020/12/18 10:51:38;;;;;;;9.10;4.00;;;;;;;6.77;85.69;102292.72;5002093;28;20033;-79
2020/12/18 10:54:04;;;;;;;8.73;3.60;;;;;;;6.75;86.17;102284.13;5002041;28;20481;-79
2020/12/18 10:56:29;;;;;;;8.05;3.40;;;;;;;6.85;85.12;102279.25;4977715;28;20517;-77
2020/12/18 10:58:55;;;;;;;7.55;3.35;;;;;;;6.97;84.48;102289.03;4976945;28;20034;-78
2020/12/18 11:01:20;;;;;;;7.93;3.00;;;;;;;7.03;84.19;102274.78;4976707;28;20035;-77
2020/12/18 11:03:46;;;;;;;8.00;3.15;;;;;;;7.02;83.59;102283.53;4992986;28;20065;-78
2020/12/18 11:06:11;;;;;;;5.72;3.08;;;;;;;7.05;83.58;102278.16;4992990;28;20084;-79
2020/12/18 11:08:37;;;;;;;7.80;2.92;;;;;;;7.12;84.00;102276.03;4992698;28;20077;-80
2020/12/18 11:11:03;;;;;;;7.40;3.30;;;;;;;7.20;83.95;102281.69;4997700;28;20089;-78
2020/12/18 11:13:28;;;;;;;9.25;3.10;;;;;;;7.22;83.51;102279.81;4997275;28;20076;-78
2020/12/18 11:15:54;;;;;;;10.88;3.17;;;;;;;7.28;83.68;102282.06;4974012;28;20049;-77
2020/12/18 11:18:19;;;;;;;8.80;3.50;;;;;;;7.36;83.19;102271.19;4980771;28;20419;-78
2020/12/18 11:20:45;;;;;;;11.55;3.38;;;;;;;7.48;82.15;102277.47;5012225;28;20034;-77
2020/12/18 11:23:10;;;;;;;7.68;3.15;;;;;;;7.48;82.13;102277.47;5011671;28;20460;-78
2020/12/18 11:25:36;;;;;;;8.15;2.80;;;;;;;7.54;82.00;102277.97;4995742;28;20132;-79
2020/12/18 11:28:01;;;;;;;8.48;2.53;;;;;;;7.59;82.77;102275.94;4953820;28;20038;-78
2020/12/18 11:30:27;;;;;;;9.98;2.92;;;;;;;7.59;81.56;102278.53;4974861;28;20038;-78
2020/12/18 11:32:52;;;;;;;6.95;2.90;;;;;;;7.66;81.70;102289.47;4979735;28;20053;-76
2020/12/18 11:35:18;;;;;;;8.00;3.25;;;;;;;7.65;81.50;102290.41;4976224;28;20038;-78
2020/12/18 11:37:43;;;;;;;13.80;2.80;;;;;;;7.65;81.48;102285.19;4976284;28;20043;-80
2020/12/18 11:40:09;;;;;;;8.55;2.85;;;;;;;7.64;81.63;102280.03;4976268;28;20463;-77